Time;durP1;ratioP1;P1;durP2;ratioP2;P2;SDS_P1;SDS_P2;PMS_P1;PMS_P2;Temp;Humidity;BMP_temperature;BMP_pressure;BME280_temperature;BME280_humidity;BME280_pressure;Samples;Min_cycle;Max_cycle;Signal;HPM_P1;HPM_P2
2024/04/13 00:02:02;;;;;;;15.43;14.93;;;22.30;77.40;;;;;;5503679;26;20628;-63
2024/04/13 00:04:31;;;;;;;15.60;15.10;;;22.30;77.40;;;;;;5505259;26;20580;-62
2024/04/13 00:06:56;;;;;;;16.90;16.30;;;22.30;77.40;;;;;;5509867;26;20454;-62
2024/04/13 00:09:25;;;;;;;15.80;15.30;;;22.30;77.50;;;;;;5507221;26;20595;-63
2024/04/13 00:11:51;;;;;;;15.70;15.10;;;22.30;77.50;;;;;;5507085;26;20229;-62
2024/04/13 00:14:19;;;;;;;16.57;15.97;;;22.30;77.60;;;;;;5511049;26;20516;-62
2024/04/13 00:16:47;;;;;;;16.77;16.07;;;22.30;77.60;;;;;;5509376;26;20746;-63
2024/04/13 00:19:16;;;;;;;15.53;15.03;;;22.30;77.70;;;;;;5504847;26;20470;-63
2024/04/13 00:21:42;;;;;;;16.27;15.67;;;22.30;77.70;;;;;;5505351;26;20937;-62
2024/04/13 00:24:13;;;;;;;16.33;15.70;;;22.30;77.70;;;;;;5511356;26;20549;-62
2024/04/13 00:26:38;;;;;;;15.73;15.23;;;22.30;77.80;;;;;;5510976;25;20520;-62
2024/04/13 00:29:07;;;;;;;15.80;15.17;;;22.30;77.80;;;;;;5501019;26;20825;-63
2024/04/13 00:31:33;;;;;;;15.53;15.03;;;22.30;77.80;;;;;;5510267;26;20699;-63
2024/04/13 00:34:05;;;;;;;15.90;15.30;;;22.30;77.80;;;;;;5505559;26;20478;-62
2024/04/13 00:36:35;;;;;;;17.87;17.27;;;22.20;77.70;;;;;;5504528;26;20240;-62
2024/04/13 00:39:05;;;;;;;17.00;16.40;;;22.20;77.80;;;;;;5517600;26;20521;-62
2024/04/13 00:41:31;;;;;;;17.90;17.30;;;22.20;77.80;;;;;;5503315;26;20462;-63
2024/04/13 00:44:00;;;;;;;15.40;14.80;;;22.20;77.90;;;;;;5508598;26;20469;-62
2024/04/13 00:46:27;;;;;;;15.53;15.00;;;22.20;78.00;;;;;;5510595;26;20460;-62
2024/04/13 00:48:56;;;;;;;15.97;15.47;;;22.20;78.00;;;;;;5506704;26;20547;-62
2024/04/13 00:51:25;;;;;;;16.10;15.53;;;22.20;78.00;;;;;;5503542;26;20462;-62
2024/04/13 00:53:55;;;;;;;15.20;14.70;;;22.20;78.00;;;;;;5507270;26;20509;-62
2024/04/13 00:56:21;;;;;;;14.50;14.00;;;22.20;78.10;;;;;;5510568;26;20457;-63
2024/04/13 00:58:51;;;;;;;15.47;14.93;;;22.20;78.80;;;;;;5494551;26;20575;-61
2024/04/13 01:01:16;;;;;;;15.43;14.93;;;22.10;78.00;;;;;;5509687;26;20465;-62
2024/04/13 01:03:46;;;;;;;14.90;14.40;;;22.10;78.00;;;;;;5509490;26;20512;-63
2024/04/13 01:06:12;;;;;;;13.87;13.47;;;22.10;78.10;;;;;;5503790;26;20252;-62
2024/04/13 01:08:43;;;;;;;16.30;15.60;;;22.10;78.10;;;;;;5503793;26;20465;-62
2024/04/13 01:11:12;;;;;;;15.60;15.10;;;22.10;78.10;;;;;;5489733;26;20996;-61
2024/04/13 01:13:41;;;;;;;15.40;14.80;;;22.10;78.20;;;;;;5503499;26;20584;-62
2024/04/13 01:16:07;;;;;;;15.10;14.60;;;22.10;78.20;;;;;;5488401;26;20998;-61
2024/04/13 01:18:35;;;;;;;15.60;15.10;;;22.10;78.20;;;;;;5509377;26;20465;-62
2024/04/13 01:21:01;;;;;;;16.57;15.80;;;22.10;78.30;;;;;;5504418;26;20526;-62
2024/04/13 01:23:32;;;;;;;15.30;14.80;;;22.10;78.30;;;;;;5502702;26;20473;-61
2024/04/13 01:26:02;;;;;;;15.90;15.40;;;22.10;78.20;;;;;;5507289;26;20575;-60
2024/04/13 01:28:34;;;;;;;15.30;14.80;;;22.10;78.30;;;;;;5509506;26;20612;-61
2024/04/13 01:31:00;;;;;;;14.73;14.23;;;22.10;78.30;;;;;;5504928;26;20565;-62
2024/04/13 01:33:29;;;;;;;16.90;16.30;;;22.10;78.30;;;;;;5502393;26;20462;-62
2024/04/13 01:35:57;;;;;;;14.90;14.40;;;22.10;78.40;;;;;;5506111;26;20458;-62
2024/04/13 01:38:25;;;;;;;15.23;14.73;;;22.10;78.30;;;;;;5509371;26;20467;-61
2024/04/13 01:40:51;;;;;;;15.33;14.83;;;22.00;78.30;;;;;;5505491;26;20533;-59
2024/04/13 01:43:22;;;;;;;16.87;16.27;;;22.10;78.60;;;;;;5502227;26;20470;-63
2024/04/13 01:45:50;;;;;;;16.17;15.60;;;22.00;78.50;;;;;;5504069;26;20232;-58
2024/04/13 01:48:18;;;;;;;16.10;15.60;;;22.00;78.60;;;;;;5509211;26;21009;-61
2024/04/13 01:50:44;;;;;;;16.33;15.83;;;22.00;78.60;;;;;;5508669;26;20461;-62
2024/04/13 01:53:13;;;;;;;15.80;15.30;;;22.00;78.60;;;;;;5502161;26;20588;-61
2024/04/13 01:55:39;;;;;;;15.97;15.47;;;22.00;78.60;;;;;;5502585;26;20748;-62
2024/04/13 01:58:07;;;;;;;15.77;15.27;;;22.00;78.60;;;;;;5508298;26;20520;-61
2024/04/13 02:00:37;;;;;;;15.23;14.73;;;22.00;79.50;;;;;;5509152;26;20219;-60
2024/04/13 02:03:06;;;;;;;16.33;15.83;;;22.00;78.80;;;;;;5503302;26;20534;-62
2024/04/13 02:05:34;;;;;;;16.70;16.10;;;22.00;78.60;;;;;;5506112;26;20521;-61
2024/04/13 02:08:03;;;;;;;16.33;15.73;;;22.00;78.60;;;;;;5506919;26;20530;-60
2024/04/13 02:10:28;;;;;;;17.03;16.43;;;22.00;78.50;;;;;;5508885;26;20460;-61
2024/04/13 02:12:57;;;;;;;16.93;16.33;;;22.00;78.60;;;;;;5505237;26;20528;-61
2024/04/13 02:15:23;;;;;;;16.50;15.90;;;22.00;78.50;;;;;;5506441;26;20349;-62
2024/04/13 02:17:54;;;;;;;17.03;16.43;;;22.00;78.50;;;;;;5503680;26;20466;-59
2024/04/13 02:20:19;;;;;;;16.60;15.90;;;22.00;78.50;;;;;;5508802;26;20260;-63
2024/04/13 02:22:48;;;;;;;17.17;16.57;;;22.00;78.60;;;;;;5507638;26;20535;-62
2024/04/13 02:25:14;;;;;;;16.87;16.30;;;22.00;78.80;;;;;;5508464;26;20224;-61
2024/04/13 02:27:42;;;;;;;17.23;16.63;;;21.90;78.70;;;;;;5508485;25;20469;-63
2024/04/13 02:30:09;;;;;;;18.40;17.70;;;22.00;78.80;;;;;;5502421;26;20515;-62
2024/04/13 02:32:37;;;;;;;16.63;16.03;;;21.90;78.70;;;;;;5501563;26;20932;-62
2024/04/13 02:35:07;;;;;;;16.67;16.17;;;21.90;78.70;;;;;;5505447;26;20460;-61
2024/04/13 02:37:35;;;;;;;16.27;15.77;;;21.90;78.70;;;;;;5502276;26;20462;-60
2024/04/13 02:40:02;;;;;;;16.43;15.93;;;22.00;78.80;;;;;;5506184;26;20992;-63
2024/04/13 02:42:30;;;;;;;16.57;16.07;;;21.90;78.70;;;;;;5507701;26;20863;-62
2024/04/13 02:44:56;;;;;;;17.83;17.23;;;21.90;78.70;;;;;;5504979;26;20456;-62
2024/04/13 02:47:25;;;;;;;15.90;15.40;;;21.90;78.80;;;;;;5501794;26;20872;-62
2024/04/13 02:49:51;;;;;;;16.87;16.27;;;21.90;78.70;;;;;;5503186;26;20240;-61
2024/04/13 02:52:22;;;;;;;17.17;16.67;;;21.90;78.80;;;;;;5508737;26;20468;-62
2024/04/13 02:54:48;;;;;;;17.30;16.70;;;21.90;78.70;;;;;;5511001;26;20305;-62
2024/04/13 02:57:17;;;;;;;15.83;15.33;;;21.90;78.80;;;;;;5505458;26;20516;-62
2024/04/13 02:59:44;;;;;;;16.73;16.13;;;21.90;78.90;;;;;;5505461;26;20850;-61
2024/04/13 03:02:13;;;;;;;16.80;15.93;;;21.90;78.80;;;;;;5511015;26;20473;-62
2024/04/13 03:04:39;;;;;;;15.90;15.40;;;21.90;78.90;;;;;;5511410;26;20461;-61
2024/04/13 03:07:07;;;;;;;17.20;16.60;;;21.90;79.00;;;;;;5501403;26;20555;-62
2024/04/13 03:09:35;;;;;;;16.80;16.30;;;21.80;78.90;;;;;;5511485;26;20707;-62
2024/04/13 03:12:04;;;;;;;16.50;16.00;;;21.80;79.00;;;;;;5506954;26;20476;-62
2024/04/13 03:14:30;;;;;;;16.53;15.93;;;21.80;78.90;;;;;;5505754;26;20472;-62
2024/04/13 03:16:58;;;;;;;17.20;16.60;;;21.80;78.90;;;;;;5509096;26;20517;-61
2024/04/13 03:19:25;;;;;;;16.83;16.23;;;21.80;78.70;;;;;;5505240;26;20225;-62
2024/04/13 03:21:53;;;;;;;15.90;15.30;;;21.80;79.00;;;;;;5505592;26;20522;-60
2024/04/13 03:24:19;;;;;;;17.93;17.13;;;21.80;79.00;;;;;;5511077;26;20594;-62
2024/04/13 03:26:50;;;;;;;16.80;16.30;;;21.80;79.00;;;;;;5511440;26;20468;-61
2024/04/13 03:29:16;;;;;;;16.70;16.10;;;21.80;79.00;;;;;;5490913;26;20225;-62
2024/04/13 03:31:44;;;;;;;16.07;15.57;;;21.80;79.00;;;;;;5504259;26;20530;-59
2024/04/13 03:34:10;;;;;;;16.30;15.80;;;21.80;78.90;;;;;;5510342;26;20224;-61
2024/04/13 03:36:40;;;;;;;16.47;15.90;;;21.80;79.00;;;;;;5510958;26;20524;-60
2024/04/13 03:39:08;;;;;;;17.07;16.47;;;21.80;78.90;;;;;;5506338;26;20688;-61
2024/04/13 03:41:37;;;;;;;15.67;15.17;;;21.80;78.90;;;;;;5504197;26;20526;-61
2024/04/13 03:44:05;;;;;;;16.17;15.67;;;21.80;79.00;;;;;;5508154;26;20458;-62
2024/04/13 03:46:34;;;;;;;16.40;15.83;;;21.80;79.00;;;;;;5510970;26;21017;-61
2024/04/13 03:49:00;;;;;;;16.10;15.50;;;21.80;79.00;;;;;;5507968;26;20599;-58
2024/04/13 03:51:28;;;;;;;15.93;15.33;;;21.80;79.00;;;;;;5504047;26;20474;-61
2024/04/13 03:53:54;;;;;;;16.03;15.50;;;21.80;79.10;;;;;;5505567;26;20263;-60
2024/04/13 03:56:22;;;;;;;16.57;15.97;;;21.80;79.00;;;;;;5510893;26;20464;-62
2024/04/13 03:58:48;;;;;;;16.47;15.83;;;21.80;79.10;;;;;;5510876;26;20266;-60
2024/04/13 04:01:19;;;;;;;17.10;16.40;;;21.80;79.10;;;;;;5489005;26;20465;-60
2024/04/13 04:03:44;;;;;;;17.40;16.70;;;21.80;79.30;;;;;;5503275;26;20230;-62
2024/04/13 04:06:13;;;;;;;16.60;16.00;;;21.70;79.20;;;;;;5509373;26;20520;-60
2024/04/13 04:08:40;;;;;;;17.30;16.70;;;21.80;79.40;;;;;;5510674;26;20329;-60
2024/04/13 04:11:08;;;;;;;16.60;15.90;;;21.70;79.20;;;;;;5506530;26;20465;-61
2024/04/13 04:13:34;;;;;;;17.33;16.83;;;21.70;79.20;;;;;;5503352;26;20853;-62
2024/04/13 04:16:02;;;;;;;18.00;17.37;;;21.70;79.20;;;;;;5506973;26;20522;-62
2024/04/13 04:18:31;;;;;;;17.10;16.50;;;21.70;79.30;;;;;;5510660;26;20270;-61
2024/04/13 04:20:59;;;;;;;17.40;16.50;;;21.70;79.30;;;;;;5508699;26;20877;-60
2024/04/13 04:23:25;;;;;;;16.57;15.87;;;21.70;79.20;;;;;;5503288;26;20533;-60
2024/04/13 04:25:53;;;;;;;17.50;16.90;;;21.70;79.00;;;;;;5504426;26;20466;-60
2024/04/13 04:28:19;;;;;;;17.30;16.60;;;21.70;79.00;;;;;;5510470;26;20457;-60
2024/04/13 04:30:48;;;;;;;17.50;16.90;;;21.70;79.00;;;;;;5510519;26;20464;-60
2024/04/13 04:33:13;;;;;;;17.77;17.07;;;21.70;79.10;;;;;;5530954;20;20741;-62
2024/04/13 04:35:45;;;;;;;17.53;16.93;;;21.70;79.00;;;;;;5461510;26;20589;-61
2024/04/13 04:38:12;;;;;;;16.00;15.50;;;21.70;78.90;;;;;;5452211;26;20563;-62
2024/04/13 04:40:41;;;;;;;17.30;16.70;;;21.70;78.60;;;;;;5452345;26;20459;-61
2024/04/13 04:43:06;;;;;;;17.40;16.80;;;21.70;78.80;;;;;;5430157;26;20524;-62
2024/04/13 04:45:36;;;;;;;17.50;16.93;;;21.70;79.00;;;;;;5416272;26;20821;-62
2024/04/13 04:48:03;;;;;;;16.83;16.23;;;21.70;79.30;;;;;;5416485;26;20269;-62
2024/04/13 04:50:31;;;;;;;17.03;16.47;;;21.70;79.40;;;;;;5416228;26;21011;-62
2024/04/13 04:53:01;;;;;;;16.80;16.30;;;21.70;79.40;;;;;;5415330;26;20484;-64
2024/04/13 04:55:30;;;;;;;16.40;15.87;;;21.70;79.00;;;;;;5428300;26;20472;-65
2024/04/13 04:57:56;;;;;;;16.03;15.53;;;21.70;79.20;;;;;;5416393;26;20461;-64
2024/04/13 05:00:24;;;;;;;17.80;17.20;;;21.70;79.30;;;;;;5416675;26;20477;-64
2024/04/13 05:02:50;;;;;;;16.70;16.10;;;21.70;79.40;;;;;;5416209;26;20886;-64
2024/04/13 05:05:19;;;;;;;17.40;16.70;;;21.70;79.20;;;;;;5426385;26;20461;-64
2024/04/13 05:07:45;;;;;;;18.87;18.17;;;21.60;79.40;;;;;;5416157;26;20573;-64
2024/04/13 05:10:17;;;;;;;18.90;18.20;;;21.60;79.10;;;;;;5416160;26;20516;-64
2024/04/13 05:12:42;;;;;;;19.37;18.57;;;21.60;79.00;;;;;;5415641;26;20785;-64
2024/04/13 05:15:11;;;;;;;18.87;18.13;;;21.50;78.90;;;;;;5416437;26;20469;-64
2024/04/13 05:17:37;;;;;;;19.40;18.50;;;21.50;78.90;;;;;;5416386;26;20517;-63
2024/04/13 05:20:06;;;;;;;19.90;18.73;;;21.50;78.90;;;;;;5416291;26;20473;-62
2024/04/13 05:22:32;;;;;;;18.97;18.17;;;21.50;78.90;;;;;;5415097;26;20906;-62
2024/04/13 05:25:01;;;;;;;20.67;19.60;;;21.50;78.90;;;;;;5426866;26;20469;-62
2024/04/13 05:27:29;;;;;;;19.93;19.07;;;21.50;79.60;;;;;;5415770;26;20277;-62
2024/04/13 05:30:02;;;;;;;19.07;18.33;;;21.50;78.90;;;;;;5415730;26;20472;-61
2024/04/13 05:32:28;;;;;;;20.53;19.63;;;21.40;78.90;;;;;;5418633;26;20469;-62
2024/04/13 05:34:57;;;;;;;19.60;18.70;;;21.40;79.10;;;;;;5415636;26;20481;-62
2024/04/13 05:37:23;;;;;;;20.57;19.60;;;21.50;79.20;;;;;;5415680;26;20469;-62
2024/04/13 05:39:51;;;;;;;19.83;18.97;;;21.50;79.30;;;;;;5415689;26;20873;-62
2024/04/13 05:42:17;;;;;;;20.43;19.53;;;21.40;79.20;;;;;;5415408;26;20227;-62
2024/04/13 05:44:49;;;;;;;20.60;19.60;;;21.40;79.20;;;;;;5415681;26;21105;-60
2024/04/13 05:47:15;;;;;;;20.60;19.60;;;21.50;79.50;;;;;;5415435;26;20235;-62
2024/04/13 05:49:43;;;;;;;19.90;19.10;;;21.40;81.10;;;;;;5414630;26;20469;-66
2024/04/13 05:52:09;;;;;;;19.00;18.17;;;21.50;82.50;;;;;;5417693;26;20480;-62
2024/04/13 05:54:38;;;;;;;20.10;18.93;;;21.60;82.60;;;;;;5415134;26;20465;-65
2024/04/13 05:57:06;;;;;;;20.00;19.20;;;21.80;82.20;;;;;;5415275;26;20532;-64
2024/04/13 05:59:36;;;;;;;18.80;18.00;;;21.90;81.90;;;;;;5415181;26;20465;-62
2024/04/13 06:02:04;;;;;;;19.00;18.10;;;21.90;82.10;;;;;;5416863;26;20484;-62
2024/04/13 06:04:34;;;;;;;21.17;20.17;;;21.90;82.20;;;;;;5415148;26;20484;-62
2024/04/13 06:07:00;;;;;;;20.50;19.57;;;21.90;83.20;;;;;;5415050;26;20465;-62
2024/04/13 06:09:29;;;;;;;20.87;19.83;;;21.90;83.40;;;;;;5414902;26;20532;-60
2024/04/13 06:11:54;;;;;;;20.80;19.90;;;21.90;83.70;;;;;;5426098;26;20227;-62
2024/04/13 06:14:23;;;;;;;21.83;20.50;;;22.00;83.90;;;;;;5400295;26;20533;-62
2024/04/13 06:16:49;;;;;;;19.90;19.10;;;22.00;83.50;;;;;;5415064;26;20227;-62
2024/04/13 06:19:20;;;;;;;21.20;20.30;;;22.00;83.20;;;;;;5414674;26;20541;-62
2024/04/13 06:21:47;;;;;;;21.87;20.60;;;22.00;83.10;;;;;;5425155;26;20227;-62
2024/04/13 06:24:16;;;;;;;21.50;20.30;;;22.00;83.20;;;;;;5414808;26;20484;-62
2024/04/13 06:26:41;;;;;;;21.63;20.63;;;22.10;83.20;;;;;;5415096;26;20508;-60
2024/04/13 06:29:10;;;;;;;20.37;19.27;;;22.10;83.50;;;;;;5417940;26;20472;-63
2024/04/13 06:31:36;;;;;;;21.50;20.50;;;22.20;83.50;;;;;;5418062;26;20370;-62
2024/04/13 06:34:04;;;;;;;21.73;20.53;;;22.20;83.30;;;;;;5417925;26;20524;-65
2024/04/13 06:36:33;;;;;;;21.23;20.13;;;22.20;83.40;;;;;;5418251;26;20227;-59
2024/04/13 06:39:01;;;;;;;19.65;18.75;;;22.20;82.90;;;;;;5415963;26;20356;-64
2024/04/13 06:41:27;;;;;;;20.70;19.50;;;22.20;82.80;;;;;;5426199;26;20415;-63
2024/04/13 06:43:56;;;;;;;22.37;21.37;;;22.30;82.70;;;;;;5417979;26;20235;-62
2024/04/13 06:46:21;;;;;;;22.87;21.97;;;22.50;81.70;;;;;;5403241;26;20253;-62
2024/04/13 06:48:50;;;;;;;23.53;22.43;;;22.50;81.20;;;;;;5421069;26;20826;-63
2024/04/13 06:51:16;;;;;;;19.65;18.75;;;22.50;81.00;;;;;;5416987;26;20405;-63
2024/04/13 06:53:47;;;;;;;19.27;18.47;;;22.50;81.20;;;;;;5417009;26;20387;-64
2024/04/13 06:56:13;;;;;;;21.20;20.30;;;22.50;81.00;;;;;;5417763;26;20468;-64
2024/04/13 06:58:43;;;;;;;22.37;21.47;;;22.60;80.70;;;;;;5418273;26;20476;-65
2024/04/13 07:01:09;;;;;;;22.43;21.53;;;22.60;80.60;;;;;;5420168;26;20327;-63
2024/04/13 07:03:37;;;;;;;21.30;20.30;;;22.60;80.70;;;;;;5417256;26;20531;-65
2024/04/13 07:06:05;;;;;;;21.97;20.73;;;22.60;81.40;;;;;;5417824;26;20227;-64
2024/04/13 07:08:34;;;;;;;22.37;21.47;;;22.60;81.50;;;;;;5418143;26;20937;-62
2024/04/13 07:11:03;;;;;;;22.47;21.57;;;22.60;80.80;;;;;;5417657;26;21063;-63
2024/04/13 07:13:33;;;;;;;21.30;20.50;;;22.60;80.80;;;;;;5417266;26;20808;-64
2024/04/13 07:15:59;;;;;;;22.30;21.40;;;22.60;81.10;;;;;;5417516;26;20461;-66
2024/04/13 07:18:28;;;;;;;22.47;21.47;;;22.60;80.90;;;;;;5431356;26;21014;-61
2024/04/13 07:20:54;;;;;;;22.33;21.33;;;22.50;80.50;;;;;;5417481;26;20810;-64
2024/04/13 07:23:23;;;;;;;22.37;21.47;;;22.50;81.60;;;;;;5416652;26;20533;-62
2024/04/13 07:25:56;;;;;;;24.37;23.37;;;22.40;81.30;;;;;;5417713;26;20915;-69
2024/04/13 07:28:27;;;;;;;12.77;12.20;;;22.60;83.10;;;;;;5417835;26;20523;-69
2024/04/13 07:30:53;;;;;;;12.20;11.70;;;22.60;81.00;;;;;;5416812;26;20465;-69
2024/04/13 07:33:21;;;;;;;12.70;12.10;;;22.70;80.60;;;;;;5416623;26;20534;-69
2024/04/13 07:35:48;;;;;;;12.33;11.57;;;22.60;80.30;;;;;;5417327;26;20227;-70
2024/04/13 07:38:16;;;;;;;14.63;13.93;;;22.70;80.50;;;;;;5429387;26;20556;-69
2024/04/13 07:40:42;;;;;;;15.40;14.80;;;22.70;80.60;;;;;;5416903;26;20469;-69
2024/04/13 07:43:11;;;;;;;16.23;15.63;;;22.70;81.10;;;;;;5416433;26;20519;-69
2024/04/13 07:45:42;;;;;;;16.33;15.60;;;22.70;80.30;;;;;;5417063;26;20453;-70
2024/04/13 07:48:10;;;;;;;15.43;14.83;;;22.80;80.30;;;;;;5431407;26;20811;-67
2024/04/13 07:50:36;;;;;;;16.43;15.30;;;22.80;80.30;;;;;;5428580;26;20519;-69
2024/04/13 07:53:05;;;;;;;15.63;14.87;;;22.80;80.20;;;;;;5416146;26;20469;-70
2024/04/13 07:55:30;;;;;;;15.90;15.20;;;22.80;80.70;;;;;;5417035;26;20266;-67
2024/04/13 07:57:59;;;;;;;15.33;14.83;;;22.80;79.90;;;;;;5426695;26;20480;-67
2024/04/13 08:00:25;;;;;;;15.60;15.00;;;22.90;80.30;;;;;;5382078;26;20220;-66
2024/04/13 08:02:56;;;;;;;13.57;12.97;;;22.90;80.40;;;;;;5381141;26;20462;-67
2024/04/13 08:05:22;;;;;;;13.23;12.60;;;22.90;80.30;;;;;;5381009;26;20224;-69
2024/04/13 08:07:51;;;;;;;12.70;12.20;;;22.90;80.00;;;;;;5395900;26;20515;-69
2024/04/13 08:10:19;;;;;;;12.87;12.27;;;22.90;79.80;;;;;;5431527;26;20357;-68
2024/04/13 08:12:48;;;;;;;12.40;11.70;;;22.90;80.20;;;;;;5422111;26;20493;-69
2024/04/13 08:15:15;;;;;;;12.23;11.70;;;23.00;79.90;;;;;;5416991;26;20465;-68
2024/04/13 08:17:44;;;;;;;12.03;11.63;;;23.00;79.70;;;;;;5421779;26;20483;-64
2024/04/13 08:20:12;;;;;;;12.40;11.87;;;23.00;79.70;;;;;;5439602;26;20517;-67
2024/04/13 08:22:41;;;;;;;14.70;14.20;;;23.00;79.50;;;;;;5415851;26;20582;-67
2024/04/13 08:25:07;;;;;;;14.47;13.87;;;22.90;80.30;;;;;;5416596;26;20948;-68
2024/04/13 08:27:35;;;;;;;16.53;15.83;;;22.90;79.90;;;;;;5418643;26;20883;-69
2024/04/13 08:30:02;;;;;;;13.77;13.17;;;22.80;80.40;;;;;;5436572;26;20466;-67
2024/04/13 08:32:30;;;;;;;12.27;11.57;;;22.90;80.30;;;;;;5416365;26;20524;-69
2024/04/13 08:34:56;;;;;;;13.70;13.20;;;22.90;80.10;;;;;;5416584;26;20460;-69
2024/04/13 08:37:28;;;;;;;14.30;13.53;;;22.90;80.10;;;;;;5416414;26;20596;-71
2024/04/13 08:39:54;;;;;;;13.90;13.30;;;22.90;81.00;;;;;;5450983;26;20226;-67
2024/04/13 08:42:29;;;;;;;13.80;13.03;;;22.90;80.50;;;;;;5451970;26;20562;-67
2024/04/13 08:44:58;;;;;;;13.80;13.20;;;22.80;80.60;;;;;;5451934;26;20226;-70
2024/04/13 08:47:26;;;;;;;13.73;13.03;;;22.90;81.70;;;;;;5451967;26;21029;-69
2024/04/13 08:49:57;;;;;;;15.25;14.65;;;22.80;81.60;;;;;;5415412;26;20447;-67
2024/04/13 08:52:27;;;;;;;17.80;16.90;;;22.80;81.90;;;;;;5441548;26;20280;-69
2024/04/13 08:54:55;;;;;;;13.23;12.63;;;22.90;81.30;;;;;;5452268;26;20464;-68
2024/04/13 08:57:24;;;;;;;13.03;12.23;;;22.90;81.40;;;;;;5452300;26;20451;-69
2024/04/13 08:59:55;;;;;;;14.43;11.97;;;22.90;81.20;;;;;;5450917;26;20558;-67
2024/04/13 09:02:22;;;;;;;11.97;11.37;;;23.00;81.80;;;;;;5451230;26;20475;-66
2024/04/13 09:04:52;;;;;;;12.70;11.90;;;23.00;81.70;;;;;;5451883;26;20813;-67
2024/04/13 09:07:20;;;;;;;11.30;10.80;;;23.00;81.70;;;;;;5451005;26;20463;-68
2024/04/13 09:09:51;;;;;;;11.47;11.07;;;23.00;81.50;;;;;;5419702;26;20465;-66
2024/04/13 09:12:17;;;;;;;11.48;10.77;;;23.00;81.80;;;;;;5414582;26;20793;-72
2024/04/13 09:14:46;;;;;;;12.13;11.47;;;23.00;82.40;;;;;;5416127;26;20246;-68
2024/04/13 09:17:13;;;;;;;12.37;11.57;;;23.00;82.70;;;;;;5433716;26;20873;-67
2024/04/13 09:19:44;;;;;;;11.77;11.27;;;23.10;82.00;;;;;;5451883;26;20464;-66
2024/04/13 09:22:10;;;;;;;13.10;12.03;;;23.10;82.20;;;;;;5451355;26;20471;-68
2024/04/13 09:24:42;;;;;;;12.30;11.43;;;23.10;83.30;;;;;;5451349;26;20513;-69
2024/04/13 09:27:17;;;;;;;12.80;12.30;;;23.20;83.40;;;;;;5448777;26;20483;-71
2024/04/13 09:29:46;;;;;;;13.10;12.60;;;23.10;83.50;;;;;;5452146;26;20455;-71
2024/04/13 09:32:22;;;;;;;13.30;12.60;;;23.10;82.90;;;;;;5451617;26;20471;-71
2024/04/13 09:34:51;;;;;;;13.50;12.70;;;23.00;82.80;;;;;;5452199;26;20447;-66
2024/04/13 09:37:17;;;;;;;12.73;12.23;;;23.00;83.40;;;;;;5434815;26;20524;-73
2024/04/13 09:39:45;;;;;;;14.30;13.60;;;23.00;85.00;;;;;;5415531;26;20520;-71
2024/04/13 09:42:12;;;;;;;13.70;12.87;;;23.10;86.40;;;;;;5415097;26;20511;-71
2024/04/13 09:44:43;;;;;;;12.73;12.10;;;23.20;85.90;;;;;;5415558;26;20460;-70
2024/04/13 09:47:09;;;;;;;11.90;11.40;;;23.20;85.10;;;;;;5430003;26;20523;-69
2024/04/13 09:49:37;;;;;;;13.17;12.47;;;23.10;85.50;;;;;;5451673;26;20455;-69
2024/04/13 09:52:04;;;;;;;11.77;11.27;;;23.20;86.00;;;;;;5450729;26;20226;-69
2024/04/13 09:54:34;;;;;;;12.13;11.60;;;23.20;84.90;;;;;;5451289;26;21030;-68
2024/04/13 09:57:00;;;;;;;11.60;11.10;;;23.20;84.20;;;;;;5439360;26;20456;-68
2024/04/13 09:59:32;;;;;;;12.77;11.90;;;23.10;84.10;;;;;;5415385;26;20513;-68
2024/04/13 10:02:01;;;;;;;13.83;11.40;;;23.20;84.70;;;;;;5413448;26;20788;-68
2024/04/13 10:04:29;;;;;;;13.20;12.30;;;23.20;85.50;;;;;;5415182;26;20579;-68
2024/04/13 10:06:57;;;;;;;14.10;12.63;;;23.20;86.10;;;;;;5424876;26;20464;-68
2024/04/13 10:09:26;;;;;;;16.87;12.77;;;23.30;87.70;;;;;;5451515;26;20552;-68
2024/04/13 10:11:54;;;;;;;13.60;12.87;;;23.30;89.70;;;;;;5450368;26;20447;-66
2024/04/13 10:14:25;;;;;;;12.97;12.03;;;23.20;89.60;;;;;;5451166;26;20803;-67
2024/04/13 10:16:55;;;;;;;12.77;11.90;;;23.30;90.40;;;;;;5445219;26;20513;-66
2024/04/13 10:19:26;;;;;;;13.50;12.33;;;23.30;90.50;;;;;;5417285;26;20823;-66
2024/04/13 10:21:57;;;;;;;13.50;12.13;;;23.20;87.30;;;;;;5414405;26;20971;-66
2024/04/13 10:24:26;;;;;;;13.27;12.20;;;23.10;86.50;;;;;;5414902;26;20505;-65
2024/04/13 10:26:52;;;;;;;12.00;11.30;;;23.10;85.70;;;;;;5414473;26;20453;-66
2024/04/13 10:29:27;;;;;;;14.47;13.37;;;23.10;85.30;;;;;;5414971;26;20495;-66
2024/04/13 10:31:53;;;;;;;12.60;11.90;;;23.00;85.20;;;;;;5414161;26;20261;-66
2024/04/13 10:34:29;;;;;;;12.40;11.70;;;22.90;84.70;;;;;;5414893;26;20943;-65
2024/04/13 10:36:58;;;;;;;11.90;11.40;;;22.90;84.70;;;;;;5414827;26;20514;-66
2024/04/13 10:39:26;;;;;;;10.90;10.30;;;22.90;84.70;;;;;;5414785;26;20971;-66
2024/04/13 10:41:52;;;;;;;10.27;9.87;;;22.90;84.60;;;;;;5414045;26;20501;-65
2024/04/13 10:44:27;;;;;;;11.57;10.80;;;22.80;84.30;;;;;;5414447;26;20452;-65
2024/04/13 10:46:52;;;;;;;11.60;10.97;;;22.80;84.10;;;;;;5414818;26;20271;-66
2024/04/13 10:49:21;;;;;;;12.00;11.50;;;22.80;83.90;;;;;;5414685;26;20563;-66
2024/04/13 10:51:50;;;;;;;12.37;11.80;;;22.80;83.80;;;;;;5413979;26;20456;-66
2024/04/13 10:54:19;;;;;;;12.57;11.87;;;22.80;83.70;;;;;;5434256;26;20516;-66
2024/04/13 10:56:44;;;;;;;11.93;11.50;;;22.80;83.70;;;;;;5448951;26;20463;-68
2024/04/13 10:59:13;;;;;;;12.87;12.27;;;22.80;85.40;;;;;;5450136;26;20515;-67
2024/04/13 11:01:42;;;;;;;13.07;12.47;;;22.80;85.90;;;;;;5449681;26;20244;-67
2024/04/13 11:04:13;;;;;;;12.63;11.93;;;22.80;85.30;;;;;;5447152;26;20472;-69
2024/04/13 11:06:41;;;;;;;12.70;12.10;;;22.80;85.70;;;;;;5434407;26;20587;-68
2024/04/13 11:09:14;;;;;;;12.80;12.30;;;22.80;84.60;;;;;;5414011;26;20453;-67
2024/04/13 11:11:40;;;;;;;12.80;12.30;;;22.90;84.80;;;;;;5413445;26;20894;-67
2024/04/13 11:14:09;;;;;;;13.60;13.03;;;22.80;85.00;;;;;;5418526;26;20472;-67
2024/04/13 11:16:34;;;;;;;13.70;12.77;;;22.90;84.20;;;;;;5417686;26;20219;-67
2024/04/13 11:19:03;;;;;;;11.97;11.40;;;22.90;83.50;;;;;;5417378;26;20504;-68
2024/04/13 11:21:31;;;;;;;13.30;12.70;;;22.90;83.00;;;;;;5417061;26;20219;-68
2024/04/13 11:24:00;;;;;;;14.50;13.63;;;22.90;82.60;;;;;;5419887;26;20473;-68
2024/04/13 11:26:31;;;;;;;15.80;14.90;;;22.90;82.30;;;;;;5417270;26;20452;-70
2024/04/13 11:29:00;;;;;;;16.70;15.37;;;22.90;82.30;;;;;;5417147;26;20453;-66
2024/04/13 11:31:26;;;;;;;13.37;12.67;;;22.90;82.30;;;;;;5418972;26;20586;-66
2024/04/13 11:33:54;;;;;;;14.17;13.57;;;22.90;82.50;;;;;;5417186;26;20563;-69
2024/04/13 11:36:21;;;;;;;15.07;14.27;;;22.80;83.20;;;;;;5417762;26;20464;-68
2024/04/13 11:38:50;;;;;;;14.20;13.50;;;22.90;83.30;;;;;;5417479;26;20453;-68
2024/04/13 11:41:17;;;;;;;15.80;15.00;;;22.90;83.30;;;;;;5417675;26;20536;-69
2024/04/13 11:43:55;;;;;;;18.30;17.30;;;23.00;84.90;;;;;;5418127;26;20484;-68
2024/04/13 11:46:22;;;;;;;14.50;13.80;;;23.00;83.80;;;;;;5424613;26;20508;-70
2024/04/13 11:48:52;;;;;;;15.13;14.43;;;23.00;83.40;;;;;;5419269;26;21039;-70
2024/04/13 11:51:19;;;;;;;13.90;12.93;;;23.00;83.60;;;;;;5417664;26;21019;-72
2024/04/13 11:53:49;;;;;;;13.03;12.40;;;23.00;82.80;;;;;;5419744;26;20516;-71
2024/04/13 11:56:15;;;;;;;13.77;12.83;;;23.10;82.40;;;;;;5418401;26;20497;-69
2024/04/13 11:58:53;;;;;;;14.97;14.07;;;23.10;82.20;;;;;;5418767;26;20457;-70
2024/04/13 12:01:19;;;;;;;14.30;13.70;;;23.10;82.20;;;;;;5417624;26;20478;-70
2024/04/13 12:03:47;;;;;;;12.83;12.33;;;23.10;82.20;;;;;;5417530;26;21055;-69
2024/04/13 12:06:13;;;;;;;13.40;12.87;;;23.10;81.90;;;;;;5417549;26;20610;-70
2024/04/13 12:08:42;;;;;;;12.57;11.97;;;23.10;81.80;;;;;;5417473;26;20449;-70
2024/04/13 12:11:09;;;;;;;12.60;12.10;;;23.10;81.50;;;;;;5417567;26;20538;-69
2024/04/13 12:13:37;;;;;;;14.27;13.53;;;23.20;81.80;;;;;;5417317;26;20480;-70
2024/04/13 12:16:06;;;;;;;12.60;11.93;;;23.20;81.70;;;;;;5421518;26;20475;-70
2024/04/13 12:18:34;;;;;;;16.40;15.30;;;23.30;82.60;;;;;;5430470;26;20469;-71
2024/04/13 12:21:00;;;;;;;14.33;13.63;;;23.30;82.50;;;;;;5451599;26;20912;-67
2024/04/13 12:23:28;;;;;;;16.30;15.40;;;23.30;82.00;;;;;;5451485;26;20472;-66
2024/04/13 12:25:54;;;;;;;16.60;15.50;;;23.30;81.80;;;;;;5429565;26;20588;-68
2024/04/13 12:28:23;;;;;;;19.47;18.30;;;23.30;81.80;;;;;;5416098;26;20461;-69
2024/04/13 12:30:49;;;;;;;21.17;19.43;;;23.30;81.90;;;;;;5418512;26;20227;-67
2024/04/13 12:33:20;;;;;;;21.37;19.97;;;23.30;82.80;;;;;;5415721;26;21389;-67